createdAt,value
2023-03-10T00:01:30.124Z,19.32
2023-03-10T00:03:59.013Z,19.39
2023-03-10T00:06:30.719Z,19.56
2023-03-10T00:09:24.527Z,19.49
2023-03-10T00:11:52.311Z,19.44
2023-03-10T00:14:23.673Z,19.55
2023-03-10T00:16:50.894Z,19.25
2023-03-10T00:19:18.688Z,19.45
2023-03-10T00:21:48.979Z,19.45
2023-03-10T00:24:16.133Z,19.52
2023-03-10T00:26:53.391Z,19.69
2023-03-10T00:29:22.217Z,19.43
2023-03-10T00:31:49.784Z,19.23
2023-03-10T00:34:17.011Z,19.40
2023-03-10T00:36:44.671Z,19.13
2023-03-10T00:39:12.062Z,19.34
2023-03-10T00:41:39.538Z,19.43
2023-03-10T00:44:10.397Z,19.17
2023-03-10T00:46:39.199Z,19.39
2023-03-10T00:49:07.917Z,19.48
2023-03-10T00:51:36.113Z,19.57
2023-03-10T00:54:03.851Z,19.30
2023-03-10T00:56:31.316Z,19.12
2023-03-10T00:59:23.962Z,19.31
2023-03-10T01:01:51.349Z,19.43
2023-03-10T01:04:20.147Z,19.17
2023-03-10T01:06:48.094Z,19.16
2023-03-10T01:09:16.387Z,19.07
2023-03-10T01:11:46.763Z,19.30
2023-03-10T01:14:15.707Z,19.32
2023-03-10T01:16:43.270Z,19.39
2023-03-10T01:19:11.033Z,19.21
2023-03-10T01:21:40.020Z,19.34
2023-03-10T01:24:15.222Z,19.11
2023-03-10T01:26:43.360Z,19.19
2023-03-10T01:29:13.065Z,19.46
2023-03-10T01:31:42.273Z,19.35
2023-03-10T01:34:09.597Z,19.24
2023-03-10T01:36:36.865Z,19.39
2023-03-10T01:39:04.432Z,19.55
2023-03-10T01:41:31.634Z,19.39
2023-03-10T01:43:59.636Z,19.30
2023-03-10T01:46:45.778Z,19.41
2023-03-10T01:49:32.740Z,19.47
2023-03-10T01:52:03.959Z,19.57
2023-03-10T01:54:43.226Z,19.72
2023-03-10T01:57:12.081Z,19.86
2023-03-10T01:59:40.859Z,19.75
2023-03-10T02:02:08.933Z,19.91
2023-03-10T02:04:43.983Z,19.86
2023-03-10T02:07:13.402Z,19.93
2023-03-10T02:09:44.816Z,19.92
2023-03-10T02:12:13.830Z,19.87
2023-03-10T02:14:41.984Z,19.78
2023-03-10T02:17:14.058Z,19.94
2023-03-10T02:19:59.759Z,19.92
2023-03-10T02:22:27.336Z,19.99
2023-03-10T02:25:19.299Z,19.99
2023-03-10T02:27:48.176Z,19.78
2023-03-10T02:30:27.392Z,19.65
2023-03-10T02:32:59.288Z,19.61
2023-03-10T02:35:28.207Z,19.21
2023-03-10T02:38:00.391Z,19.70
2023-03-10T02:40:34.827Z,19.71
2023-03-10T02:43:17.153Z,19.56
2023-03-10T02:45:48.802Z,19.51
2023-03-10T02:48:28.085Z,19.53
2023-03-10T02:50:57.117Z,19.64
2023-03-10T02:53:29.576Z,19.58
2023-03-10T02:55:58.662Z,19.61
2023-03-10T02:58:29.492Z,19.53
2023-03-10T03:00:57.972Z,19.64
2023-03-10T03:03:28.773Z,19.30
2023-03-10T03:05:56.207Z,19.44
2023-03-10T03:08:24.288Z,19.52
2023-03-10T03:10:53.231Z,19.40
2023-03-10T03:13:22.467Z,19.47
2023-03-10T03:15:51.218Z,19.35
2023-03-10T03:18:19.000Z,19.48
2023-03-10T03:20:46.312Z,19.10
2023-03-10T03:23:14.033Z,19.03
2023-03-10T03:25:46.530Z,19.09
2023-03-10T03:28:18.684Z,19.21
2023-03-10T03:30:50.277Z,19.19
2023-03-10T03:33:18.367Z,19.04
2023-03-10T03:35:46.632Z,19.13
2023-03-10T03:38:16.560Z,19.04
2023-03-10T03:40:45.470Z,19.10
2023-03-10T03:43:15.130Z,19.19
2023-03-10T03:45:43.704Z,19.33
2023-03-10T03:48:14.346Z,19.30
2023-03-10T03:50:42.499Z,19.40
2023-03-10T03:53:19.788Z,19.38
2023-03-10T03:55:47.036Z,19.25
2023-03-10T03:58:19.537Z,19.34
2023-03-10T04:00:48.772Z,19.23
2023-03-10T04:03:17.764Z,19.22
2023-03-10T04:05:46.166Z,18.92
2023-03-10T04:08:14.571Z,18.99
2023-03-10T04:10:41.975Z,19.07
2023-03-10T04:13:09.419Z,19.08
2023-03-10T04:15:37.001Z,18.84
2023-03-10T04:18:04.316Z,18.73
2023-03-10T04:20:31.756Z,18.96
2023-03-10T04:22:59.409Z,18.94
2023-03-10T04:25:31.174Z,18.90
2023-03-10T04:27:58.618Z,18.84
2023-03-10T04:30:29.785Z,18.76
2023-03-10T04:33:00.962Z,18.89
2023-03-10T04:35:30.608Z,18.85
2023-03-10T04:37:59.652Z,18.96
2023-03-10T04:40:27.699Z,18.94
2023-03-10T04:42:55.235Z,18.89
2023-03-10T04:45:23.003Z,18.80
2023-03-10T04:47:51.936Z,18.70
2023-03-10T04:50:19.197Z,18.72
2023-03-10T04:52:50.286Z,18.84
2023-03-10T04:55:20.354Z,18.95
2023-03-10T04:57:48.530Z,18.36
2023-03-10T05:00:16.776Z,18.72
2023-03-10T05:02:44.170Z,18.62
2023-03-10T05:05:15.083Z,18.74
2023-03-10T05:07:45.313Z,18.71
2023-03-10T05:10:15.168Z,18.77
2023-03-10T05:12:42.642Z,18.22
2023-03-10T05:15:14.561Z,18.45
2023-03-10T05:17:42.126Z,18.28
2023-03-10T05:20:10.752Z,17.98
2023-03-10T05:22:38.832Z,18.13
2023-03-10T05:25:10.250Z,18.35
2023-03-10T05:27:39.147Z,18.50
2023-03-10T05:30:08.848Z,18.32
2023-03-10T05:32:38.150Z,18.37
2023-03-10T05:35:08.437Z,18.56
2023-03-10T05:37:40.251Z,18.63
2023-03-10T05:40:12.806Z,18.61
2023-03-10T05:42:40.319Z,18.76
2023-03-10T05:45:08.413Z,18.56
2023-03-10T05:47:37.607Z,18.27
2023-03-10T05:50:06.320Z,18.27
2023-03-10T05:52:41.767Z,18.38
2023-03-10T05:55:13.872Z,18.20
2023-03-10T05:57:41.780Z,18.47
2023-03-10T06:00:10.963Z,18.24
2023-03-10T06:02:43.654Z,18.17
2023-03-10T06:05:14.575Z,18.30
2023-03-10T06:07:42.552Z,18.01
2023-03-10T06:10:12.689Z,18.03
2023-03-10T06:12:40.041Z,18.14
2023-03-10T06:15:07.901Z,18.13
2023-03-10T06:17:35.136Z,18.34
2023-03-10T06:20:02.635Z,17.91
2023-03-10T06:22:31.369Z,18.08
2023-03-10T06:24:58.747Z,18.43
2023-03-10T06:27:25.912Z,18.24
2023-03-10T06:30:00.976Z,18.30
2023-03-10T06:32:28.476Z,18.57
2023-03-10T06:35:02.858Z,18.37
2023-03-10T06:37:30.182Z,18.69
2023-03-10T06:39:57.306Z,18.62
2023-03-10T06:42:24.554Z,18.79
2023-03-10T06:44:54.959Z,18.39
2023-03-10T06:47:22.302Z,18.37
2023-03-10T06:49:57.836Z,18.31
2023-03-10T06:52:26.027Z,18.31
2023-03-10T06:54:55.453Z,18.26
2023-03-10T06:57:22.759Z,18.25
2023-03-10T06:59:55.831Z,18.22
2023-03-10T07:02:42.437Z,18.41
2023-03-10T07:05:13.861Z,18.41
2023-03-10T07:07:42.749Z,18.15
2023-03-10T07:10:13.689Z,18.45
2023-03-10T07:12:59.801Z,18.51
2023-03-10T07:15:35.515Z,18.57
2023-03-10T07:18:08.381Z,18.62
2023-03-10T07:20:41.088Z,18.33
2023-03-10T07:23:23.120Z,18.59
2023-03-10T07:26:00.191Z,18.43
2023-03-10T07:28:37.798Z,18.51
2023-03-10T07:31:15.749Z,18.59
2023-03-10T07:33:52.597Z,18.47
2023-03-10T07:36:33.453Z,18.41
2023-03-10T07:39:11.171Z,18.57
2023-03-10T07:41:46.744Z,18.52
2023-03-10T07:44:22.207Z,18.66
2023-03-10T07:47:03.636Z,18.28
2023-03-10T07:49:47.142Z,18.24
2023-03-10T07:52:22.193Z,18.57
2023-03-10T07:55:27.381Z,18.66
2023-03-10T07:58:01.144Z,18.31
2023-03-10T08:00:40.857Z,18.50
2023-03-10T08:03:16.496Z,18.23
2023-03-10T08:06:10.527Z,18.59
2023-03-10T08:08:50.185Z,18.31
2023-03-10T08:11:25.386Z,18.79
2023-03-10T08:14:04.948Z,18.46
2023-03-10T08:16:58.920Z,18.99
2023-03-10T08:19:31.284Z,18.95
2023-03-10T08:22:15.065Z,18.95
2023-03-10T08:27:44.260Z,19.75
2023-03-10T08:30:20.488Z,19.90
2023-03-10T08:32:53.274Z,20.22
2023-03-10T08:35:23.286Z,20.59
2023-03-10T08:40:44.004Z,20.84
2023-03-10T08:43:11.740Z,20.29
2023-03-10T08:48:30.144Z,20.74
2023-03-10T08:50:58.090Z,21.10
2023-03-10T08:53:25.556Z,21.58
2023-03-10T08:55:52.924Z,21.65
2023-03-10T08:58:20.647Z,21.61
2023-03-10T09:00:49.234Z,21.77
2023-03-10T09:03:17.041Z,22.39
2023-03-10T09:05:44.486Z,22.48
2023-03-10T09:08:12.214Z,22.62
2023-03-10T09:10:41.111Z,22.13
2023-03-10T09:13:14.292Z,21.76
2023-03-10T09:15:46.018Z,21.84
2023-03-10T09:18:15.600Z,22.38
2023-03-10T09:20:56.783Z,22.23
2023-03-10T09:23:24.150Z,22.14
2023-03-10T09:25:51.718Z,22.54
2023-03-10T09:28:22.106Z,22.70
2023-03-10T09:30:53.799Z,22.58
2023-03-10T09:33:27.408Z,22.62
2023-03-10T09:36:06.577Z,23.03
2023-03-10T09:38:35.541Z,22.69
2023-03-10T09:41:38.287Z,22.57
2023-03-10T09:44:43.624Z,22.32
2023-03-10T09:47:25.447Z,23.10
2023-03-10T09:50:42.272Z,23.56
2023-03-10T09:53:35.621Z,24.19
2023-03-10T09:56:16.084Z,23.92
2023-03-10T09:58:50.032Z,23.63
2023-03-10T10:01:23.305Z,24.56
2023-03-10T10:03:58.381Z,23.95
2023-03-10T10:06:30.470Z,24.53
2023-03-10T10:11:46.546Z,25.18
2023-03-10T10:14:31.077Z,24.57
2023-03-10T10:17:35.444Z,24.19
2023-03-10T10:20:46.215Z,24.03
2023-03-10T10:26:59.912Z,24.25
2023-03-10T10:30:42.433Z,25.33
2023-03-10T10:36:55.623Z,26.04
2023-03-10T10:39:44.713Z,26.24
2023-03-10T10:42:34.360Z,26.34
2023-03-10T10:45:09.117Z,26.60
2023-03-10T10:47:50.663Z,26.92
2023-03-10T10:50:36.503Z,26.63
2023-03-10T10:53:39.941Z,25.68
2023-03-10T10:56:20.036Z,25.91
2023-03-10T10:59:30.282Z,26.90
2023-03-10T11:02:35.755Z,26.42
2023-03-10T11:05:23.389Z,26.55
2023-03-10T11:07:54.170Z,27.25
2023-03-10T11:10:31.278Z,27.71
2023-03-10T11:13:22.815Z,27.63
2023-03-10T11:16:07.317Z,25.63
2023-03-10T11:21:53.586Z,27.40
2023-03-10T11:24:49.451Z,27.49
2023-03-10T11:27:34.686Z,27.39
2023-03-10T11:30:18.518Z,28.19
2023-03-10T11:33:04.098Z,26.30
2023-03-10T11:35:36.765Z,26.59
2023-03-10T11:38:37.434Z,26.75
2023-03-10T11:41:43.051Z,27.36
2023-03-10T11:44:31.031Z,27.28
2023-03-10T11:47:20.311Z,28.34
2023-03-10T11:50:02.131Z,28.14
2023-03-10T11:52:32.982Z,29.24
2023-03-10T11:58:06.032Z,29.12
2023-03-10T12:00:44.523Z,29.64
2023-03-10T12:03:50.122Z,30.29
2023-03-10T12:06:35.444Z,30.75
2023-03-10T12:12:45.914Z,30.64
2023-03-10T12:15:24.386Z,30.01
2023-03-10T12:18:01.521Z,30.29
2023-03-10T12:20:30.927Z,30.80
2023-03-10T12:23:30.684Z,31.17
2023-03-10T12:26:00.896Z,31.32
2023-03-10T12:28:34.403Z,31.08
2023-03-10T12:31:01.919Z,30.26
2023-03-10T12:33:37.646Z,30.34
2023-03-10T12:39:38.980Z,31.11
2023-03-10T12:42:33.323Z,31.40
2023-03-10T12:45:23.865Z,31.47
2023-03-10T12:48:10.625Z,31.39
2023-03-10T12:50:57.991Z,30.90
2023-03-10T12:53:45.663Z,30.58
2023-03-10T12:56:27.997Z,29.76
2023-03-10T12:59:08.577Z,30.26
2023-03-10T13:01:56.405Z,30.78
2023-03-10T13:04:35.449Z,31.12
2023-03-10T13:07:07.129Z,31.78
2023-03-10T13:09:39.311Z,31.99
2023-03-10T13:12:24.701Z,32.34
2023-03-10T13:14:56.942Z,31.49
2023-03-10T13:17:36.942Z,31.54
2023-03-10T13:20:15.231Z,31.41
2023-03-10T13:22:56.875Z,31.90
2023-03-10T13:25:25.041Z,31.05
2023-03-10T13:28:00.224Z,31.44
2023-03-10T13:30:28.190Z,32.24
2023-03-10T13:33:03.784Z,31.83
2023-03-10T13:35:39.912Z,31.64
2023-03-10T13:38:20.176Z,31.85
2023-03-10T13:41:08.409Z,32.17
2023-03-10T13:43:48.877Z,32.90
2023-03-10T13:46:27.858Z,31.86
2023-03-10T13:49:23.732Z,30.71
2023-03-10T13:51:58.193Z,31.32
2023-03-10T13:54:42.510Z,31.74
2023-03-10T13:57:18.672Z,31.75
2023-03-10T13:59:50.915Z,31.96
2023-03-10T14:02:30.616Z,31.96
2023-03-10T14:04:59.060Z,31.06
2023-03-10T14:07:33.467Z,31.70
2023-03-10T14:10:08.093Z,31.92
2023-03-10T14:12:43.632Z,31.94
2023-03-10T14:15:19.838Z,31.28
2023-03-10T14:18:09.281Z,31.49
2023-03-10T14:20:42.304Z,32.28
2023-03-10T14:23:27.374Z,32.56
2023-03-10T14:25:57.243Z,32.15
2023-03-10T14:28:35.747Z,32.21
2023-03-10T14:31:07.091Z,31.80
2023-03-10T14:33:37.021Z,32.34
2023-03-10T14:36:06.212Z,32.72
2023-03-10T14:38:33.762Z,32.41
2023-03-10T14:41:01.025Z,32.24
2023-03-10T14:43:42.199Z,32.45
2023-03-10T14:46:13.579Z,32.15
2023-03-10T14:48:48.548Z,31.25
2023-03-10T14:51:32.450Z,30.77
2023-03-10T14:54:05.801Z,30.83
2023-03-10T14:56:36.783Z,30.75
2023-03-10T14:59:06.791Z,29.85
2023-03-10T15:01:34.342Z,29.64
2023-03-10T15:04:01.566Z,29.60
2023-03-10T15:06:28.778Z,29.18
2023-03-10T15:08:55.869Z,28.83
2023-03-10T15:11:35.970Z,28.63
2023-03-10T15:14:12.557Z,28.27
2023-03-10T15:16:42.637Z,28.73
2023-03-10T15:19:24.883Z,28.78
2023-03-10T15:21:54.633Z,28.87
2023-03-10T15:24:21.931Z,28.79
2023-03-10T15:27:08.752Z,28.90
2023-03-10T15:29:35.949Z,28.90
2023-03-10T15:32:12.382Z,28.77
2023-03-10T15:34:50.046Z,28.79
2023-03-10T15:37:28.986Z,28.25
2023-03-10T15:40:00.543Z,28.21
2023-03-10T15:42:30.027Z,28.76
2023-03-10T15:45:12.287Z,28.16
2023-03-10T15:47:39.689Z,28.40
2023-03-10T15:50:13.347Z,28.57
2023-03-10T15:52:57.381Z,27.86
2023-03-10T15:55:26.117Z,27.82
2023-03-10T15:57:56.354Z,28.07
2023-03-10T16:00:26.947Z,28.46
2023-03-10T16:02:57.269Z,28.56
2023-03-10T16:05:27.844Z,28.61
2023-03-10T16:07:57.762Z,28.67
2023-03-10T16:10:25.822Z,27.66
2023-03-10T16:12:53.269Z,28.26
2023-03-10T16:15:23.250Z,28.29
2023-03-10T16:17:50.804Z,28.26
2023-03-10T16:20:19.376Z,28.47
2023-03-10T16:22:46.560Z,28.23
2023-03-10T16:25:16.502Z,28.13
2023-03-10T16:27:45.271Z,27.41
2023-03-10T16:30:14.236Z,27.75
2023-03-10T16:32:47.689Z,27.59
2023-03-10T16:35:15.645Z,27.50
2023-03-10T16:37:43.489Z,27.50
2023-03-10T16:40:12.333Z,27.79
2023-03-10T16:42:46.553Z,27.25
2023-03-10T16:45:13.885Z,27.52
2023-03-10T16:47:41.327Z,27.43
2023-03-10T16:50:12.832Z,27.27
2023-03-10T16:52:42.651Z,27.14
2023-03-10T16:55:18.473Z,27.18
2023-03-10T16:57:46.073Z,27.15
2023-03-10T17:00:14.482Z,26.57
2023-03-10T17:02:49.455Z,26.91
2023-03-10T17:05:19.695Z,26.92
2023-03-10T17:07:55.583Z,27.00
2023-03-10T17:10:23.312Z,26.96
2023-03-10T17:12:50.429Z,26.90
2023-03-10T17:15:20.163Z,27.04
2023-03-10T17:17:53.460Z,26.64
2023-03-10T17:20:35.326Z,26.51
2023-03-10T17:23:09.373Z,26.43
2023-03-10T17:25:56.877Z,26.02
2023-03-10T17:28:47.239Z,25.89
2023-03-10T17:31:29.645Z,25.69
2023-03-10T17:34:11.316Z,25.47
2023-03-10T17:36:41.904Z,24.90
2023-03-10T17:39:23.703Z,24.74
2023-03-10T17:41:56.258Z,24.49
2023-03-10T17:44:25.357Z,24.26
2023-03-10T17:47:03.765Z,24.53
2023-03-10T17:49:35.849Z,24.27
2023-03-10T17:52:03.006Z,24.33
2023-03-10T17:54:33.445Z,24.34
2023-03-10T17:57:05.875Z,24.27
2023-03-10T17:59:43.443Z,24.33
2023-03-10T18:02:21.600Z,24.34
2023-03-10T18:04:48.942Z,24.23
2023-03-10T18:07:16.369Z,24.18
2023-03-10T18:09:54.808Z,24.03
2023-03-10T18:12:35.701Z,23.96
2023-03-10T18:15:33.503Z,23.69
2023-03-10T18:18:14.622Z,23.74
2023-03-10T18:20:44.302Z,23.54
2023-03-10T18:23:14.066Z,22.88
2023-03-10T18:25:44.246Z,23.11
2023-03-10T18:28:17.106Z,23.19
2023-03-10T18:30:56.749Z,23.02
2023-03-10T18:33:29.626Z,22.97
2023-03-10T18:36:04.864Z,23.01
2023-03-10T18:38:46.712Z,22.80
2023-03-10T18:41:19.351Z,22.93
2023-03-10T18:43:49.755Z,23.11
2023-03-10T18:46:30.091Z,23.18
2023-03-10T18:49:09.344Z,23.21
2023-03-10T18:52:02.511Z,23.29
2023-03-10T18:54:30.621Z,22.97
2023-03-10T18:57:04.937Z,23.20
2023-03-10T18:59:41.155Z,23.05
2023-03-10T19:02:20.784Z,22.89
2023-03-10T19:05:15.792Z,22.74
2023-03-10T19:07:44.961Z,22.62
2023-03-10T19:10:14.943Z,22.61
2023-03-10T19:12:45.811Z,22.50
2023-03-10T19:15:17.865Z,22.40
2023-03-10T19:17:47.165Z,22.71
2023-03-10T19:20:23.116Z,22.61
2023-03-10T19:22:58.691Z,22.72
2023-03-10T19:28:38.721Z,22.52
2023-03-10T19:31:18.414Z,22.51
2023-03-10T19:33:45.936Z,22.07
2023-03-10T19:36:19.213Z,21.85
2023-03-10T19:38:56.011Z,21.97
2023-03-10T19:41:23.753Z,22.29
2023-03-10T19:43:51.698Z,22.08
2023-03-10T19:46:31.353Z,22.30
2023-03-10T19:49:03.996Z,22.21
2023-03-10T19:51:45.586Z,21.72
2023-03-10T19:57:04.942Z,21.63
2023-03-10T19:59:41.520Z,21.94
2023-03-10T20:02:32.053Z,21.77
2023-03-10T20:05:13.007Z,21.56
2023-03-10T20:07:47.103Z,21.34
2023-03-10T20:10:28.209Z,21.28
2023-03-10T20:15:53.059Z,21.70
2023-03-10T20:21:24.965Z,21.70
2023-03-10T20:23:56.456Z,21.83
2023-03-10T20:26:25.073Z,21.87
2023-03-10T20:29:01.745Z,21.78
2023-03-10T20:31:36.431Z,21.51
2023-03-10T20:34:34.572Z,21.38
2023-03-10T20:37:08.346Z,21.44
2023-03-10T20:40:06.597Z,21.54
2023-03-10T20:42:36.464Z,21.56
2023-03-10T20:45:20.362Z,21.41
2023-03-10T20:47:53.404Z,21.43
2023-03-10T20:50:33.532Z,21.11
2023-03-10T20:53:08.477Z,21.45
2023-03-10T20:55:53.237Z,21.36
2023-03-10T20:58:36.994Z,21.54
2023-03-10T21:01:10.508Z,21.83
2023-03-10T21:06:29.607Z,22.13
2023-03-10T21:09:02.386Z,22.42
2023-03-10T21:11:29.790Z,22.23
2023-03-10T21:14:07.290Z,22.51
2023-03-10T21:16:54.312Z,22.67
2023-03-10T21:19:30.158Z,22.70
2023-03-10T21:21:57.398Z,22.64
2023-03-10T21:24:28.426Z,22.43
2023-03-10T21:27:01.511Z,22.48
2023-03-10T21:29:36.287Z,22.58
2023-03-10T21:32:06.226Z,22.58
2023-03-10T21:34:37.009Z,22.65
2023-03-10T21:37:08.950Z,22.65
2023-03-10T21:39:45.624Z,22.92
2023-03-10T21:42:33.103Z,23.12
2023-03-10T21:45:07.591Z,23.16
2023-03-10T21:47:38.160Z,23.04
2023-03-10T21:50:10.533Z,23.06
2023-03-10T21:52:51.069Z,22.95
2023-03-10T21:55:28.736Z,23.06
2023-03-10T21:58:00.382Z,23.10
2023-03-10T22:00:56.133Z,22.99
2023-03-10T22:03:27.375Z,23.10
2023-03-10T22:06:00.250Z,23.18
2023-03-10T22:08:38.589Z,23.23
2023-03-10T22:11:12.402Z,23.23
2023-03-10T22:13:46.102Z,23.07
2023-03-10T22:16:28.972Z,22.72
2023-03-10T22:18:59.029Z,22.95
2023-03-10T22:21:29.363Z,23.03
2023-03-10T22:24:09.153Z,23.06
2023-03-10T22:26:44.340Z,23.01
2023-03-10T22:29:13.951Z,23.18
2023-03-10T22:31:46.291Z,23.04
2023-03-10T22:34:35.979Z,23.05
2023-03-10T22:37:10.500Z,23.14
2023-03-10T22:39:38.903Z,23.03
2023-03-10T22:42:11.728Z,22.85
2023-03-10T22:44:44.712Z,23.04
2023-03-10T22:47:14.336Z,22.52
2023-03-10T22:49:49.406Z,23.01
2023-03-10T22:52:22.370Z,23.18
2023-03-10T22:54:54.193Z,22.96
2023-03-10T22:57:24.199Z,22.95
2023-03-10T22:59:54.909Z,23.00
2023-03-10T23:02:27.534Z,22.79
2023-03-10T23:04:57.540Z,23.17
2023-03-10T23:07:24.847Z,22.98
2023-03-10T23:10:01.930Z,23.06
2023-03-10T23:12:29.744Z,23.19
2023-03-10T23:14:57.229Z,22.98
2023-03-10T23:17:32.249Z,23.01
2023-03-10T23:20:03.375Z,22.94
2023-03-10T23:22:30.846Z,22.99
2023-03-10T23:25:00.202Z,22.71
2023-03-10T23:27:27.479Z,22.92
2023-03-10T23:29:59.571Z,22.84
2023-03-10T23:32:30.685Z,22.90
2023-03-10T23:34:59.246Z,22.91
2023-03-10T23:37:26.383Z,22.71
2023-03-10T23:39:59.116Z,22.87
2023-03-10T23:42:29.302Z,22.90
2023-03-10T23:44:56.505Z,22.84
2023-03-10T23:47:23.757Z,22.65
2023-03-10T23:49:55.462Z,22.61
2023-03-10T23:52:25.224Z,22.94
2023-03-10T23:54:52.926Z,23.02
2023-03-10T23:57:22.980Z,22.80
2023-03-10T23:59:51.586Z,22.98
